• Join FlightAware (Why Join?)
  • Login
  • US Flag 
04:22PM EDT


 

Airport Tracker/Info


-or-


 

Live Flight TrackerFlight Track Log ✈ JZA8489 ✈ 03-May-2013 ✈ CYQR - CYEG

Flight Track Log - Related Links

Times and Time Zones

All times are in EDT time to prevent confusion due to time zone crossing. See the JZA8489 flight status page for this flight to view local times or setup timezone preferences in your user account.

Time Position Orientation Groundspeed Altitude Reporting Facility
EDT Latitude Longitude Course Direction KTS MPH feet Rate Location/Type
09:32PM 50.4167 -104.7000 301° West 40 46 1,900  Level Winnipeg Center
09:33PM 50.4000 -104.6333 111° Southeast 120 138 3,000 1,200 Climbing Winnipeg Center
09:34PM 50.3667 -104.6000 147° Southeast 140 161 4,300 1,080 Climbing Winnipeg Center
09:35PM 50.3500 -104.6833 253° West 170 196 5,200 900 Climbing Winnipeg Center
09:36PM 50.3833 -104.7500 308° West 170 196 6,200 1,020 Climbing Winnipeg Center
09:37PM 50.6980 -104.9626 308° West  Level FlightAware Approximate
09:37PM 50.4333 -104.8000 328° Northwest 180 207 7,300  Level Winnipeg Center
09:38PM 50.7347 -105.0568 301° West  Level FlightAware Approximate
09:38PM 50.4667 -104.8667 308° West 180 207 8,400  Level Winnipeg Center
09:39PM 50.5000 -104.9167 316° Northwest 180 207 9,400 900 Climbing Winnipeg Center
09:40PM 50.5167 -105.0000 287° West 190 219 10,200 900 Climbing Winnipeg Center
09:41PM 50.5500 -105.0667 308° West 190 219 11,200 960 Climbing Winnipeg Center
09:42PM 50.5833 -105.1167 316° Northwest 190 219 12,200 900 Climbing Winnipeg Center
09:43PM 50.6000 -105.2000 288° West 190 219 13,000 840 Climbing Winnipeg Center
09:44PM 50.6500 -105.2667 320° Northwest 200 230 13,900 900 Climbing Winnipeg Center
09:45PM 50.6833 -105.3500 302° West 200 230 14,900 900 Climbing Winnipeg Center
09:46PM 50.7167 -105.4167 308° West 200 230 15,700 780 Climbing Winnipeg Center
09:47PM 50.7500 -105.5000 302° West 210 242 16,500 720 Climbing Winnipeg Center
09:48PM 50.7833 -105.5500 317° Northwest 210 242 17,200 660 Climbing Winnipeg Center
09:49PM 50.8167 -105.6333 302° West 210 242 17,900 420 Climbing Winnipeg Center
09:49PM 50.8167 -105.6333 302° West 210 242 17,800 540 Descending Edmonton Center
09:50PM 50.8500 -105.7167 302° West 200 230 18,600 660 Climbing Edmonton Center
09:51PM 50.8833 -105.7833 308° West 210 242 19,000 600 Climbing Winnipeg Center
09:52PM 50.9333 -105.8500 320° Northwest 210 242 19,700 480 Climbing Winnipeg Center
09:53PM 50.9500 -105.9333 288° West 210 242 20,000 180 Climbing Winnipeg Center
09:53PM 50.9667 -105.9333 360° North 220 253 20,000  Level Edmonton Center
09:54PM 51.0000 -106.0167 302° West 230 265 20,000  Level Edmonton Center
09:55PM 51.0333 -106.0833 309° West 250 288 20,000  Level Edmonton Center
09:56PM 51.0667 -106.2000 294° West 250 288 20,000  Level Winnipeg Center
09:57PM 51.1167 -106.2833 314° West 250 288 20,000  Level Winnipeg Center
09:58PM 51.1500 -106.3833 298° West 260 299 20,000  Level Winnipeg Center
09:59PM 51.2000 -106.4667 314° West 260 299 20,000  Level Winnipeg Center
10:00PM 51.2333 -106.5500 303° West 260 299 20,000  Level Winnipeg Center
10:01PM 51.2833 -106.6667 304° West 260 299 20,000  Level Winnipeg Center
10:02PM 51.3333 -106.7667 309° West 260 299 20,000  Level Winnipeg Center
10:03PM 51.3667 -106.8500 303° West 260 299 20,000  Level Winnipeg Center
10:04PM 51.4167 -106.9500 309° West 260 299 20,000  Level Winnipeg Center
10:05PM 51.4333 -107.0333 288° West 250 288 20,000  Level Winnipeg Center
10:06PM 51.4833 -107.1167 314° West 250 288 20,000  Level Winnipeg Center
10:07PM 51.5167 -107.2167 298° West 250 288 20,000  Level Winnipeg Center
10:08PM 51.5667 -107.3000 314° West 250 288 20,000  Level Winnipeg Center
10:09PM 51.6000 -107.4000 298° West 250 288 20,000  Level Winnipeg Center
10:10PM 51.6500 -107.4833 314° West 250 288 20,000  Level Winnipeg Center
10:11PM 51.6833 -107.6000 295° West 250 288 20,000  Level Winnipeg Center
10:12PM 51.7333 -107.7000 309° West 250 288 20,000  Level Winnipeg Center
10:13PM 51.7667 -107.7833 303° West 250 288 20,000  Level Winnipeg Center
10:14PM 51.8000 -107.8833 298° West 250 288 20,000  Level Winnipeg Center
10:15PM 51.8333 -107.9667 303° West 250 288 20,000  Level Winnipeg Center
10:15PM 51.8333 -107.9500 90° East 250 288 20,000  Level Edmonton Center
10:16PM 51.8833 -108.0667 305° West 250 288 20,000  Level Winnipeg Center
10:17PM 51.9167 -108.1500 303° West 250 288 20,000  Level Winnipeg Center
10:18PM 51.9500 -108.2333 303° West 240 276 20,000  Level Winnipeg Center
10:19PM 51.9833 -108.3333 298° West 250 288 20,000  Level Winnipeg Center
10:20PM 52.0333 -108.4333 309° West 250 288 20,000  Level Winnipeg Center
10:21PM 52.0667 -108.5167 303° West 240 276 20,000  Level Winnipeg Center
10:22PM 52.1000 -108.6167 299° West 240 276 20,000  Level Winnipeg Center
10:23PM 52.1333 -108.7000 303° West 240 276 20,000  Level Winnipeg Center
10:24PM 52.1833 -108.8000 309° West 240 276 20,000  Level Winnipeg Center
10:25PM 52.2333 -108.8667 321° Northwest 240 276 20,000  Level Winnipeg Center
10:25PM 52.2167 -108.8833 211° Southwest 240 276 20,000  Level Edmonton Center
10:26PM 52.2667 -108.9667 314° West 240 276 20,000  Level Edmonton Center
10:27PM 52.3000 -109.0500 303° West 240 276 20,000  Level Edmonton Center
10:28PM 52.3333 -109.1500 299° West 250 288 20,000  Level Winnipeg Center
10:29PM 52.3667 -109.2333 303° West 250 288 20,000  Level Winnipeg Center
10:30PM 52.4167 -109.3500 305° West 250 288 20,000  Level Winnipeg Center
10:30PM 52.4000 -109.3500 180° South 240 276 20,000  Level Edmonton Center
10:31PM 52.4500 -109.4500 309° West 250 288 20,000  Level Winnipeg Center
10:32PM 52.4833 -109.5167 309° West 250 288 20,000  Level Winnipeg Center
10:33PM 52.5167 -109.6333 295° West 250 288 20,000  Level Winnipeg Center
10:33PM 52.5333 -109.6333 360° North 240 276 20,000  Level Edmonton Center
10:34PM 52.5500 -109.7167 288° West 240 276 20,000  Level Edmonton Center
10:35PM 52.6000 -109.8167 309° West 250 288 20,000  Level Edmonton Center
10:36PM 52.6333 -109.9167 299° West 250 288 20,000  Level Winnipeg Center
10:37PM 52.6500 -110.0333 283° West 250 288 20,000  Level Winnipeg Center
10:38PM 52.6667 -110.1500 283° West 250 288 20,000  Level Winnipeg Center
10:38PM 52.6500 -110.1500 180° South 250 288 20,000  Level Edmonton Center
10:39PM 52.6833 -110.2667 295° West 250 288 20,000  Level Edmonton Center
10:40PM 52.7000 -110.3833 283° West 250 288 20,000  Level Edmonton Center
10:41PM 52.7000 -110.5000 270° West 250 288 20,000  Level Edmonton Center
10:42PM 52.7333 -110.5833 303° West 240 276 20,000  Level Edmonton Center
10:43PM 52.7500 -110.7000 283° West 240 276 20,000  Level Edmonton Center
10:44PM 52.7667 -110.8000 285° West 240 276 20,000  Level Edmonton Center
10:45PM 52.7833 -110.9167 283° West 240 276 20,000  Level Edmonton Center
10:46PM 52.8000 -111.0333 283° West 250 288 20,000  Level Edmonton Center
10:47PM 52.8167 -111.1500 283° West 250 288 20,000  Level Edmonton Center
10:48PM 52.8333 -111.2667 283° West 250 288 20,000  Level Edmonton Center
10:49PM 52.8500 -111.3500 288° West 250 288 20,000  Level Edmonton Center
10:50PM 52.8667 -111.4667 283° West 250 288 20,000  Level Edmonton Center
10:51PM 52.8833 -111.5833 283° West 250 288 20,000  Level Edmonton Center
10:52PM 52.9000 -111.7000 283° West 250 288 20,000  Level Edmonton Center
10:53PM 52.9000 -111.8167 270° West 250 288 20,000  Level Edmonton Center
10:54PM 52.9333 -111.9333 295° West 250 288 20,000  Level Edmonton Center
10:55PM 52.9500 -112.0500 283° West 250 288 20,000 -60 Level Edmonton Center
10:56PM 52.9667 -112.1667 283° West 250 288 19,900 -780 Descending Edmonton Center
10:57PM 52.9833 -112.2833 283° West 270 311 18,500 -1,380 Descending Edmonton Center
10:58PM 53.0000 -112.4000 283° West 280 322 17,200 -1,380 Descending Edmonton Center
10:59PM 53.0167 -112.5333 282° West 270 311 15,800 -1,440 Descending Edmonton Center
11:00PM 53.0333 -112.6500 283° West 260 299 14,400 -1,320 Descending Edmonton Center
11:01PM 53.0500 -112.7333 288° West 260 299 13,200 -1,380 Descending Edmonton Center
11:02PM 53.0833 -112.8500 295° West 260 299 11,700 -1,500 Descending Edmonton Center
11:03PM 53.1000 -112.9833 282° West 260 299 10,300 -1,500 Descending Edmonton Center
11:04PM 53.1333 -113.1000 296° West 250 288 8,800 -1,380 Descending Edmonton Center
11:05PM 53.1500 -113.2167 283° West 240 276 7,600 -1,260 Descending Edmonton Center
11:06PM 53.1833 -113.3000 304° West 230 265 6,300 -1,320 Descending Edmonton Center